Time;durP1;ratioP1;P1;durP2;ratioP2;P2;SDS_P1;SDS_P2;PMS_P1;PMS_P2;Temp;Humidity;BMP_temperature;BMP_pressure;BME280_temperature;BME280_humidity;BME280_pressure;Samples;Min_cycle;Max_cycle;Signal;HPM_P1;HPM_P2
2023/12/16 00:01:04;;;;;;;7.90;3.47;;;6.30;99.90;;;;;;5022705;28;20177;-83
2023/12/16 00:03:30;;;;;;;3.70;3.37;;;6.30;99.90;;;;;;5016725;28;20665;-84
2023/12/16 00:05:55;;;;;;;3.80;3.30;;;6.20;99.90;;;;;;5018583;28;20179;-84
2023/12/16 00:08:22;;;;;;;5.70;2.70;;;6.20;99.90;;;;;;5009201;28;20205;-83
2023/12/16 00:10:47;;;;;;;7.88;3.47;;;6.00;99.90;;;;;;5016426;28;20171;-84
2023/12/16 00:13:13;;;;;;;10.07;4.60;;;5.90;99.90;;;;;;5019836;28;20211;-83
2023/12/16 00:15:39;;;;;;;6.47;3.10;;;5.70;99.90;;;;;;5020816;28;20434;-85
2023/12/16 00:18:04;;;;;;;5.00;3.63;;;5.60;99.90;;;;;;5001199;28;20170;-85
2023/12/16 00:20:30;;;;;;;4.00;3.03;;;5.60;99.90;;;;;;5020870;28;20191;-84
2023/12/16 00:22:55;;;;;;;5.43;3.33;;;5.70;99.90;;;;;;5022464;28;20535;-83
2023/12/16 00:25:21;;;;;;;8.67;3.57;;;5.80;99.90;;;;;;5011955;28;20680;-83
2023/12/16 00:27:46;;;;;;;9.60;4.20;;;5.90;99.90;;;;;;5014949;28;20210;-83
2023/12/16 00:30:12;;;;;;;9.60;3.40;;;6.00;99.90;;;;;;5015881;28;20175;-84
2023/12/16 00:32:39;;;;;;;6.57;3.50;;;6.00;99.90;;;;;;5015916;28;20219;-83
2023/12/16 00:35:07;;;;;;;8.40;3.72;;;5.90;99.90;;;;;;5002823;28;20755;-83
2023/12/16 00:37:32;;;;;;;6.57;3.88;;;5.90;99.90;;;;;;5015257;28;20186;-84
2023/12/16 00:39:58;;;;;;;8.60;3.90;;;5.90;99.90;;;;;;5007497;28;20212;-84
2023/12/16 00:42:23;;;;;;;9.20;4.00;;;6.00;99.90;;;;;;5013460;28;20185;-85
2023/12/16 00:44:49;;;;;;;5.90;3.40;;;6.20;99.90;;;;;;5012532;28;20199;-85
2023/12/16 00:47:14;;;;;;;8.10;2.97;;;6.30;99.90;;;;;;4999718;28;20202;-84
2023/12/16 00:49:40;;;;;;;6.40;4.50;;;6.40;99.90;;;;;;4994523;28;20211;-84
2023/12/16 00:52:05;;;;;;;6.60;4.17;;;6.40;99.90;;;;;;5030491;28;20191;-84
2023/12/16 00:54:31;;;;;;;8.50;4.53;;;6.40;99.90;;;;;;5020365;28;20206;-84
2023/12/16 00:56:56;;;;;;;6.70;3.73;;;6.40;99.90;;;;;;5012879;28;20186;-84
2023/12/16 00:59:23;;;;;;;4.83;3.80;;;6.40;99.90;;;;;;4997412;28;20209;-84
2023/12/16 01:01:49;;;;;;;8.38;4.15;;;6.40;99.90;;;;;;5008677;28;20179;-84
2023/12/16 01:04:14;;;;;;;6.13;3.33;;;6.20;99.90;;;;;;4995206;28;20215;-84
2023/12/16 01:06:40;;;;;;;6.87;4.00;;;6.10;99.90;;;;;;5013680;28;20312;-84
2023/12/16 01:09:05;;;;;;;7.37;5.33;;;6.10;99.90;;;;;;5016925;28;20245;-83
2023/12/16 01:11:31;;;;;;;8.10;3.87;;;6.10;99.90;;;;;;5013085;28;20218;-83
2023/12/16 01:13:56;;;;;;;7.73;3.37;;;5.90;99.90;;;;;;5014237;28;20213;-83
2023/12/16 01:16:22;;;;;;;5.77;2.93;;;5.90;99.90;;;;;;5009928;28;20175;-83
2023/12/16 01:18:47;;;;;;;5.87;3.77;;;5.80;99.90;;;;;;5010680;28;20231;-83
2023/12/16 01:21:13;;;;;;;4.40;2.20;;;5.80;99.90;;;;;;4990534;28;20182;-83
2023/12/16 01:23:38;;;;;;;3.43;1.87;;;5.80;99.90;;;;;;5013298;28;20202;-83
2023/12/16 01:26:04;;;;;;;3.10;1.80;;;5.70;99.90;;;;;;5011921;28;20190;-83
2023/12/16 01:28:30;;;;;;;4.83;2.93;;;5.60;99.90;;;;;;4995039;28;20211;-83
2023/12/16 01:30:56;;;;;;;4.18;2.75;;;5.70;99.90;;;;;;5010535;28;20179;-83
2023/12/16 01:33:22;;;;;;;5.23;2.70;;;5.80;99.90;;;;;;5009824;28;20270;-83
2023/12/16 01:35:47;;;;;;;6.07;2.70;;;5.90;99.90;;;;;;5008136;28;20438;-83
2023/12/16 01:38:13;;;;;;;4.00;3.13;;;6.00;99.90;;;;;;5006117;28;20478;-84
2023/12/16 01:40:38;;;;;;;7.60;3.30;;;6.00;99.90;;;;;;4997958;28;20178;-84
2023/12/16 01:43:05;;;;;;;2.30;2.10;;;6.00;99.90;;;;;;5014017;28;20228;-84
2023/12/16 01:45:30;;;;;;;13.00;3.05;;;6.00;99.90;;;;;;4998965;28;20266;-84
2023/12/16 01:47:56;;;;;;;7.80;3.10;;;6.00;99.90;;;;;;4990193;28;20226;-84
2023/12/16 01:50:22;;;;;;;6.40;3.33;;;6.00;99.90;;;;;;4996052;28;20174;-84
2023/12/16 01:52:48;;;;;;;6.32;2.05;;;6.10;99.90;;;;;;4994460;28;20171;-84
2023/12/16 01:55:14;;;;;;;14.43;3.20;;;6.20;99.90;;;;;;5000512;28;20186;-84
2023/12/16 01:57:41;;;;;;;4.97;2.60;;;6.20;99.90;;;;;;5011709;28;20331;-84
2023/12/16 02:00:07;;;;;;;6.07;2.92;;;6.20;99.90;;;;;;5013709;28;20413;-84
2023/12/16 02:02:33;;;;;;;5.10;2.05;;;6.20;99.90;;;;;;5013060;28;20174;-83
2023/12/16 02:04:59;;;;;;;5.38;3.30;;;6.30;99.90;;;;;;5001672;28;20693;-84
2023/12/16 02:07:25;;;;;;;9.20;3.80;;;6.30;99.90;;;;;;4999713;28;20205;-84
2023/12/16 02:09:50;;;;;;;7.43;3.03;;;6.20;99.90;;;;;;4995543;28;20720;-84
2023/12/16 02:12:16;;;;;;;5.83;3.00;;;6.20;99.90;;;;;;5012648;28;20178;-84
2023/12/16 02:14:41;;;;;;;6.53;3.07;;;6.20;99.90;;;;;;5007093;28;20206;-85
2023/12/16 02:17:07;;;;;;;7.73;4.10;;;6.20;99.90;;;;;;5014252;28;20174;-85
2023/12/16 02:19:33;;;;;;;6.97;3.70;;;6.30;99.90;;;;;;5004538;28;20182;-85
2023/12/16 02:21:59;;;;;;;4.63;2.75;;;6.30;99.90;;;;;;5015007;28;20182;-85
2023/12/16 02:24:26;;;;;;;7.18;3.20;;;6.30;99.90;;;;;;4991754;28;20195;-84
2023/12/16 02:26:52;;;;;;;5.20;3.60;;;6.30;99.90;;;;;;5004227;28;20177;-85
2023/12/16 02:29:17;;;;;;;4.20;2.93;;;6.30;99.90;;;;;;5008563;28;20604;-85
2023/12/16 02:31:43;;;;;;;6.70;3.33;;;6.30;99.90;;;;;;5004409;28;20227;-85
2023/12/16 02:34:08;;;;;;;10.67;3.60;;;6.20;99.90;;;;;;5009968;28;20208;-85
2023/12/16 02:36:34;;;;;;;3.13;2.77;;;6.10;99.90;;;;;;4987578;28;20701;-85
2023/12/16 02:38:59;;;;;;;6.80;3.87;;;5.90;99.90;;;;;;4997255;28;20178;-85
2023/12/16 02:41:25;;;;;;;7.53;3.87;;;5.80;99.90;;;;;;4987653;28;20648;-85
2023/12/16 02:43:51;;;;;;;8.70;3.77;;;5.90;99.90;;;;;;5009975;28;20213;-85
2023/12/16 02:46:16;;;;;;;7.50;4.70;;;6.00;99.90;;;;;;5009077;28;20179;-85
2023/12/16 02:48:42;;;;;;;3.63;2.60;;;6.00;99.90;;;;;;5000235;28;20199;-85
2023/12/16 02:51:16;;;;;;;7.70;4.80;;;6.10;99.90;;;;;;4986681;28;20205;-85
2023/12/16 02:53:42;;;;;;;6.32;3.30;;;6.20;99.90;;;;;;4993969;28;20195;-85
2023/12/16 02:56:07;;;;;;;6.57;2.60;;;6.10;99.90;;;;;;4996409;28;20192;-85
2023/12/16 02:58:33;;;;;;;7.20;3.80;;;6.00;99.90;;;;;;5001926;28;20183;-85
2023/12/16 03:00:59;;;;;;;8.90;3.33;;;6.10;99.90;;;;;;5015499;28;20250;-85
2023/12/16 03:03:24;;;;;;;7.63;4.27;;;6.00;99.90;;;;;;5015192;28;20221;-85
2023/12/16 03:05:50;;;;;;;8.07;3.40;;;6.00;99.90;;;;;;5007924;28;20457;-85
2023/12/16 03:08:15;;;;;;;4.67;3.27;;;6.10;99.90;;;;;;5002005;28;20231;-85
2023/12/16 03:10:41;;;;;;;6.60;3.00;;;6.00;99.90;;;;;;5015634;28;20157;-85
2023/12/16 03:13:06;;;;;;;4.00;2.07;;;6.00;99.90;;;;;;5017187;28;20182;-85
2023/12/16 03:15:32;;;;;;;4.73;2.70;;;6.00;99.90;;;;;;4998618;28;20195;-85
2023/12/16 03:17:58;;;;;;;4.63;2.77;;;5.90;99.90;;;;;;5005491;28;20175;-85
2023/12/16 03:20:23;;;;;;;8.37;3.10;;;5.70;99.90;;;;;;5008926;28;20916;-85
2023/12/16 03:22:49;;;;;;;4.60;2.83;;;5.70;99.90;;;;;;5012354;28;20209;-85
2023/12/16 03:25:14;;;;;;;4.63;3.00;;;5.80;99.90;;;;;;5006257;28;20230;-85
2023/12/16 03:27:40;;;;;;;6.73;2.50;;;5.80;99.90;;;;;;5000280;28;20190;-84
2023/12/16 03:30:06;;;;;;;5.07;2.67;;;5.80;99.90;;;;;;5002888;28;20315;-85
2023/12/16 03:32:31;;;;;;;8.23;2.95;;;5.90;99.90;;;;;;5020276;28;20195;-85
2023/12/16 03:34:57;;;;;;;5.00;2.80;;;5.90;99.90;;;;;;5021920;28;20201;-85
2023/12/16 03:37:22;;;;;;;6.63;2.40;;;6.00;99.90;;;;;;5003851;28;20167;-85
2023/12/16 03:39:49;;;;;;;2.73;2.20;;;6.00;99.90;;;;;;5004741;28;20202;-85
2023/12/16 03:42:14;;;;;;;5.88;2.85;;;6.00;99.90;;;;;;5004506;28;20459;-85
2023/12/16 03:44:41;;;;;;;3.60;2.03;;;6.00;99.90;;;;;;5022287;28;20194;-84
2023/12/16 03:47:07;;;;;;;4.78;2.20;;;5.90;99.90;;;;;;5021018;28;20177;-85
2023/12/16 03:49:33;;;;;;;4.90;2.00;;;;;;;;;;5014210;28;20231;-86
2023/12/16 03:51:58;;;;;;;6.23;3.40;;;5.80;99.90;;;;;;4998817;28;20177;-85
2023/12/16 03:54:24;;;;;;;6.10;2.60;;;5.70;99.90;;;;;;5000388;28;20435;-85
2023/12/16 03:56:49;;;;;;;4.37;2.80;;;5.80;99.90;;;;;;4999788;28;20175;-85
2023/12/16 03:59:15;;;;;;;3.80;2.43;;;5.80;99.90;;;;;;5003573;28;20212;-84
2023/12/16 04:01:44;;;;;;;3.83;1.90;;;5.80;99.90;;;;;;5016913;28;20179;-84
2023/12/16 04:04:10;;;;;;;4.22;2.80;;;5.90;99.90;;;;;;4985084;28;20203;-84
2023/12/16 04:06:35;;;;;;;4.33;2.50;;;5.90;99.90;;;;;;5020977;28;20858;-85
2023/12/16 04:09:01;;;;;;;5.80;1.80;;;5.80;99.90;;;;;;5003183;28;20292;-85
2023/12/16 04:11:27;;;;;;;4.60;2.93;;;5.60;99.90;;;;;;5013216;28;20210;-85
2023/12/16 04:13:52;;;;;;;4.87;3.37;;;5.60;99.90;;;;;;4996598;28;20211;-86
2023/12/16 04:16:19;;;;;;;5.37;2.77;;;5.50;99.90;;;;;;5016390;28;20208;-87
2023/12/16 04:18:45;;;;;;;8.25;4.00;;;5.60;99.90;;;;;;5016001;28;20178;-87
2023/12/16 04:21:10;;;;;;;5.87;4.03;;;5.70;99.90;;;;;;4998021;28;20183;-87
2023/12/16 04:23:36;;;;;;;5.10;3.00;;;5.70;99.90;;;;;;4999295;28;20201;-87
2023/12/16 04:26:01;;;;;;;7.70;3.33;;;5.80;99.90;;;;;;4982086;28;20178;-88
2023/12/16 04:28:28;;;;;;;4.53;2.50;;;5.80;99.90;;;;;;4983428;28;20202;-87
2023/12/16 04:30:53;;;;;;;5.55;3.38;;;5.90;99.90;;;;;;5011887;28;20183;-86
2023/12/16 04:33:19;;;;;;;4.87;2.47;;;5.90;99.90;;;;;;5013154;28;20201;-86
2023/12/16 04:35:44;;;;;;;4.50;2.60;;;5.80;99.90;;;;;;5010695;28;20213;-86
2023/12/16 04:38:10;;;;;;;5.80;3.10;;;5.80;99.90;;;;;;4993951;28;20185;-86
2023/12/16 04:40:36;;;;;;;5.67;3.40;;;5.70;99.90;;;;;;5005464;28;20227;-86
2023/12/16 04:43:01;;;;;;;5.47;3.83;;;5.80;99.90;;;;;;5010995;28;20182;-87
2023/12/16 04:45:27;;;;;;;4.33;2.20;;;5.80;99.90;;;;;;5014519;28;20174;-85
2023/12/16 04:47:52;;;;;;;6.80;3.10;;;5.70;99.90;;;;;;5012156;28;20183;-86
2023/12/16 04:50:18;;;;;;;4.77;2.60;;;5.70;99.90;;;;;;4995641;28;20685;-86
2023/12/16 04:52:43;;;;;;;4.10;2.90;;;5.60;99.90;;;;;;4999988;28;20278;-88
2023/12/16 04:55:10;;;;;;;3.90;2.57;;;5.50;99.90;;;;;;5004594;28;20198;-87
2023/12/16 04:57:36;;;;;;;6.78;3.13;;;5.50;99.90;;;;;;5000116;28;20205;-88
2023/12/16 05:00:04;;;;;;;4.30;2.15;;;5.30;99.90;;;;;;5002072;28;20559;-88
2023/12/16 05:02:30;;;;;;;3.42;2.05;;;5.10;99.90;;;;;;5017074;28;20178;-88
2023/12/16 05:04:55;;;;;;;6.60;2.90;;;5.10;99.90;;;;;;5018848;28;20206;-86
2023/12/16 05:07:21;;;;;;;11.70;3.93;;;4.80;99.90;;;;;;5002028;28;20806;-87
2023/12/16 05:09:47;;;;;;;8.27;3.30;;;4.80;99.90;;;;;;5007852;28;20593;-87
2023/12/16 05:12:12;;;;;;;7.87;4.87;;;4.60;99.90;;;;;;5002091;28;20167;-87
2023/12/16 05:14:40;;;;;;;8.67;3.97;;;4.40;99.90;;;;;;5006228;28;20214;-87
2023/12/16 05:17:05;;;;;;;6.32;3.72;;;4.30;99.90;;;;;;5000393;28;20527;-87
2023/12/16 05:19:31;;;;;;;4.83;2.40;;;4.20;99.90;;;;;;4997590;28;20190;-86
2023/12/16 05:21:56;;;;;;;12.10;4.50;;;4.20;99.90;;;;;;5014396;28;20640;-87
2023/12/16 05:24:22;;;;;;;6.30;3.00;;;4.10;99.90;;;;;;5014661;28;20190;-87
2023/12/16 05:26:47;;;;;;;3.73;2.23;;;4.10;99.90;;;;;;4997474;28;20265;-87
2023/12/16 05:29:13;;;;;;;3.30;2.50;;;4.00;99.90;;;;;;5008175;28;20232;-87
2023/12/16 05:31:38;;;;;;;7.23;3.30;;;4.00;99.90;;;;;;4999200;28;20251;-86
2023/12/16 05:34:04;;;;;;;8.03;4.67;;;4.00;99.90;;;;;;4997428;28;20279;-87
2023/12/16 05:36:29;;;;;;;5.27;2.63;;;3.90;99.90;;;;;;5007161;28;20217;-86
2023/12/16 05:38:55;;;;;;;7.27;4.23;;;3.80;99.90;;;;;;5033976;28;20178;-86
2023/12/16 05:41:22;;;;;;;7.53;2.73;;;3.80;99.90;;;;;;5067715;28;20236;-85
2023/12/16 05:43:48;;;;;;;6.47;2.50;;;3.70;99.90;;;;;;4997813;28;20222;-86
2023/12/16 05:46:13;;;;;;;9.77;2.70;;;3.70;99.90;;;;;;5014655;28;20185;-86
2023/12/16 05:48:39;;;;;;;8.30;3.63;;;3.60;99.90;;;;;;5016255;28;20197;-86
2023/12/16 05:51:05;;;;;;;6.67;3.40;;;3.60;99.90;;;;;;5016055;28;20166;-86
2023/12/16 05:53:35;;;;;;;5.97;3.50;;;3.60;99.90;;;;;;4980666;28;20203;-86
2023/12/16 05:56:04;;;;;;;10.65;3.55;;;3.50;99.90;;;;;;4978715;28;20744;-87
2023/12/16 05:58:29;;;;;;;11.18;4.53;;;3.50;99.90;;;;;;4995974;28;20317;-86
2023/12/16 06:00:55;;;;;;;7.73;3.47;;;3.50;99.90;;;;;;4983502;28;20619;-86
2023/12/16 06:03:20;;;;;;;6.77;3.00;;;3.50;99.90;;;;;;4999118;28;20209;-87
2023/12/16 06:05:46;;;;;;;11.00;3.50;;;3.40;99.90;;;;;;5017105;28;20481;-85
2023/12/16 06:08:11;;;;;;;13.60;4.83;;;3.40;99.90;;;;;;5000601;28;20187;-85
2023/12/16 06:10:37;;;;;;;8.00;4.00;;;3.50;99.90;;;;;;5017792;28;20219;-85
2023/12/16 06:13:02;;;;;;;13.83;4.20;;;3.50;99.90;;;;;;5000724;28;20181;-85
2023/12/16 06:15:28;;;;;;;8.07;3.93;;;3.50;99.90;;;;;;5002715;28;20233;-85
2023/12/16 06:17:53;;;;;;;8.53;4.10;;;3.50;99.90;;;;;;5016591;28;20189;-85
2023/12/16 06:20:21;;;;;;;14.85;5.00;;;3.50;99.90;;;;;;5012975;28;20195;-86
2023/12/16 06:22:47;;;;;;;12.20;6.17;;;3.50;99.90;;;;;;5017030;28;20213;-86
2023/12/16 06:25:13;;;;;;;11.63;4.30;;;3.60;99.90;;;;;;5008257;28;20195;-85
2023/12/16 06:27:40;;;;;;;9.20;4.95;;;3.70;99.90;;;;;;4999733;28;20171;-85
2023/12/16 06:30:08;;;;;;;13.63;5.72;;;3.80;99.90;;;;;;5019121;28;20181;-85
2023/12/16 06:32:34;;;;;;;10.93;4.68;;;4.00;99.90;;;;;;5016219;28;20174;-84
2023/12/16 06:35:00;;;;;;;10.40;4.73;;;4.20;99.90;;;;;;4997822;28;20190;-84
2023/12/16 06:37:25;;;;;;;4.90;2.63;;;4.30;99.90;;;;;;5016929;28;20527;-85
2023/12/16 06:39:51;;;;;;;6.90;3.43;;;4.40;99.90;;;;;;5018521;28;20196;-85
2023/12/16 06:42:16;;;;;;;6.10;3.50;;;4.40;99.90;;;;;;5005005;28;20183;-84
2023/12/16 06:44:42;;;;;;;15.10;4.00;;;4.50;99.90;;;;;;5005541;28;20195;-85
2023/12/16 06:47:07;;;;;;;6.80;4.27;;;4.60;99.90;;;;;;5016947;28;20724;-85
2023/12/16 06:49:33;;;;;;;8.07;4.77;;;4.60;99.90;;;;;;5014850;28;20458;-85
2023/12/16 06:51:58;;;;;;;8.10;3.87;;;4.60;99.90;;;;;;4999319;28;20208;-86
2023/12/16 06:54:24;;;;;;;6.80;3.20;;;4.40;99.90;;;;;;5015818;28;20207;-85
2023/12/16 06:56:49;;;;;;;9.00;3.37;;;4.50;99.90;;;;;;5010948;28;20198;-84
2023/12/16 06:59:15;;;;;;;6.63;3.20;;;4.50;99.90;;;;;;5005653;28;20203;-85
2023/12/16 07:01:40;;;;;;;7.57;3.67;;;4.40;99.90;;;;;;5000531;28;20620;-85
2023/12/16 07:04:06;;;;;;;11.10;4.10;;;4.20;99.90;;;;;;5018225;28;20424;-85
2023/12/16 07:06:32;;;;;;;9.80;4.03;;;4.50;99.90;;;;;;5018802;28;20170;-85
2023/12/16 07:08:57;;;;;;;8.63;4.33;;;4.20;99.90;;;;;;5001273;28;20243;-85
2023/12/16 07:11:23;;;;;;;4.77;1.90;;;4.20;99.90;;;;;;5000592;28;20211;-85
2023/12/16 07:13:48;;;;;;;7.73;3.57;;;4.40;99.90;;;;;;5018883;28;20219;-85
2023/12/16 07:16:16;;;;;;;14.23;4.73;;;4.20;99.90;;;;;;5039421;28;20170;-85
2023/12/16 07:18:42;;;;;;;7.28;3.05;;;4.10;99.90;;;;;;5001987;28;20175;-84
2023/12/16 07:21:08;;;;;;;12.70;3.80;;;4.60;99.90;;;;;;5007317;28;20167;-85
2023/12/16 07:23:33;;;;;;;14.40;5.70;;;4.20;99.90;;;;;;5014083;28;20696;-85
2023/12/16 07:26:00;;;;;;;17.07;7.40;;;4.80;99.90;;;;;;5013139;28;20722;-85
2023/12/16 07:28:25;;;;;;;7.22;5.05;;;4.40;99.90;;;;;;4997186;28;20598;-85
2023/12/16 07:30:51;;;;;;;9.80;3.40;;;4.20;99.90;;;;;;5016432;28;20179;-84
2023/12/16 07:33:16;;;;;;;7.07;2.80;;;4.30;99.90;;;;;;5013948;28;20202;-84
2023/12/16 07:35:42;;;;;;;8.63;3.37;;;4.30;99.90;;;;;;5012994;28;20581;-85
2023/12/16 07:38:08;;;;;;;10.90;5.63;;;4.60;99.90;;;;;;5001142;28;20175;-88
2023/12/16 07:40:35;;;;;;;4.82;3.13;;;4.20;99.90;;;;;;4997523;28;20738;-87
2023/12/16 07:43:01;;;;;;;9.77;3.75;;;4.10;99.90;;;;;;5004175;28;20773;-86
2023/12/16 07:45:27;;;;;;;5.28;2.67;;;4.00;99.90;;;;;;4984235;28;20206;-87
2023/12/16 07:47:52;;;;;;;5.60;2.83;;;3.90;99.90;;;;;;5016567;28;20194;-86
2023/12/16 07:50:20;;;;;;;7.60;4.53;;;3.90;99.90;;;;;;5018078;28;20210;-86
2023/12/16 07:52:46;;;;;;;13.32;6.38;;;4.00;99.90;;;;;;5011651;28;20171;-86
2023/12/16 07:55:12;;;;;;;16.25;8.13;;;3.90;99.90;;;;;;5000211;28;20207;-86
2023/12/16 07:57:38;;;;;;;8.13;4.20;;;4.00;99.90;;;;;;5009544;28;20175;-88
2023/12/16 08:00:04;;;;;;;6.63;4.07;;;4.10;99.90;;;;;;5000465;28;20757;-87
2023/12/16 08:02:31;;;;;;;6.40;3.90;;;4.20;99.90;;;;;;5009290;28;20217;-87
2023/12/16 08:04:57;;;;;;;11.27;5.35;;;4.30;99.90;;;;;;5014303;28;20293;-87
2023/12/16 08:07:23;;;;;;;15.20;7.35;;;4.10;99.90;;;;;;4996713;28;20279;-86
2023/12/16 08:09:49;;;;;;;8.67;4.53;;;3.90;99.90;;;;;;5003192;28;20312;-85
2023/12/16 08:12:14;;;;;;;9.43;4.20;;;3.70;99.90;;;;;;5011090;28;20244;-85
2023/12/16 08:14:40;;;;;;;14.77;3.50;;;3.90;99.90;;;;;;5015550;28;20210;-84
2023/12/16 08:17:06;;;;;;;4.40;3.67;;;4.10;99.90;;;;;;5001761;28;20242;-85
2023/12/16 08:19:32;;;;;;;14.35;4.13;;;4.30;99.90;;;;;;5020194;28;20556;-85
2023/12/16 08:22:00;;;;;;;6.43;2.90;;;4.40;99.90;;;;;;5026712;28;20171;-85
2023/12/16 08:24:25;;;;;;;7.78;4.65;;;4.40;99.90;;;;;;5019528;28;20202;-85
2023/12/16 08:26:51;;;;;;;13.30;5.80;;;4.60;99.90;;;;;;5023594;28;20189;-85
2023/12/16 08:29:16;;;;;;;6.17;3.13;;;4.80;99.90;;;;;;4995448;28;20244;-84
2023/12/16 08:31:44;;;;;;;11.90;4.43;;;4.90;99.90;;;;;;5020571;28;20174;-84
2023/12/16 08:34:09;;;;;;;10.90;3.72;;;5.10;99.90;;;;;;5012658;28;20215;-83
2023/12/16 08:36:35;;;;;;;15.30;4.50;;;4.80;99.90;;;;;;5015065;28;20208;-85
2023/12/16 08:39:01;;;;;;;5.30;2.50;;;4.90;99.90;;;;;;5002214;28;20628;-83
2023/12/16 08:41:27;;;;;;;8.27;3.77;;;4.80;99.90;;;;;;5015286;28;20185;-82
2023/12/16 08:43:52;;;;;;;10.70;4.03;;;4.70;99.90;;;;;;5016525;28;20262;-82
2023/12/16 08:46:23;;;;;;;9.53;4.43;;;4.80;99.90;;;;;;5002037;28;20468;-83
2023/12/16 08:48:48;;;;;;;7.20;4.65;;;5.00;99.90;;;;;;5017425;28;20237;-82
2023/12/16 08:51:20;;;;;;;6.43;3.60;;;5.20;99.90;;;;;;5010856;28;20175;-81
2023/12/16 08:53:46;;;;;;;8.98;4.05;;;5.30;99.90;;;;;;5019843;28;20202;-82
2023/12/16 08:56:11;;;;;;;12.07;3.60;;;5.40;99.90;;;;;;5014878;28;20209;-81
2023/12/16 08:58:37;;;;;;;6.37;3.43;;;5.50;99.90;;;;;;5007949;28;20204;-81
2023/12/16 09:01:03;;;;;;;7.00;3.70;;;5.60;99.90;;;;;;5016194;28;20179;-82
2023/12/16 09:03:28;;;;;;;6.37;2.90;;;6.00;99.90;;;;;;5014676;28;20199;-82
2023/12/16 09:05:54;;;;;;;9.27;4.20;;;6.20;99.90;;;;;;5020205;28;20555;-82
2023/12/16 09:08:19;;;;;;;14.03;3.80;;;6.40;99.90;;;;;;5017549;28;20190;-82
2023/12/16 09:10:45;;;;;;;5.20;3.23;;;6.40;99.90;;;;;;5007053;28;20189;-82
2023/12/16 09:13:10;;;;;;;8.30;3.20;;;6.40;99.90;;;;;;5016991;28;20183;-82
2023/12/16 09:15:36;;;;;;;5.20;2.97;;;6.60;99.90;;;;;;5024457;28;20280;-82
2023/12/16 09:18:02;;;;;;;6.23;3.33;;;6.50;99.90;;;;;;5023095;28;20238;-82
2023/12/16 09:20:27;;;;;;;5.07;3.10;;;6.70;99.90;;;;;;5015298;28;20441;-84
2023/12/16 09:22:53;;;;;;;7.50;4.30;;;7.10;99.90;;;;;;5017477;28;20178;-83
2023/12/16 09:25:18;;;;;;;10.53;4.97;;;7.40;99.90;;;;;;5016001;28;20202;-84
2023/12/16 09:27:44;;;;;;;7.80;4.37;;;7.40;99.90;;;;;;4998984;28;20185;-84
2023/12/16 09:30:10;;;;;;;9.87;4.17;;;7.70;99.90;;;;;;5003676;28;20182;-81
2023/12/16 09:32:36;;;;;;;9.90;5.55;;;8.00;99.90;;;;;;5018360;28;20155;-83
2023/12/16 09:35:02;;;;;;;8.80;4.70;;;8.30;99.90;;;;;;4991294;28;20226;-82
2023/12/16 09:37:28;;;;;;;12.63;5.88;;;8.40;99.90;;;;;;5015912;28;20182;-82
2023/12/16 09:39:53;;;;;;;14.03;5.50;;;8.60;99.90;;;;;;4992459;28;20183;-81
2023/12/16 09:42:19;;;;;;;8.03;4.43;;;8.80;99.90;;;;;;4999804;28;20247;-83
2023/12/16 09:44:48;;;;;;;14.93;7.40;;;9.00;99.90;;;;;;5013161;28;20262;-85
2023/12/16 09:47:14;;;;;;;17.30;5.47;;;9.10;99.90;;;;;;4988271;28;20194;-83
2023/12/16 09:49:41;;;;;;;12.88;4.65;;;9.20;99.90;;;;;;5007886;28;20589;-84
2023/12/16 09:52:06;;;;;;;12.88;5.30;;;8.90;99.90;;;;;;4981169;28;20182;-84
2023/12/16 09:54:32;;;;;;;7.00;3.73;;;9.20;99.90;;;;;;5012044;28;20206;-84
2023/12/16 09:56:59;;;;;;;8.90;4.53;;;9.20;99.90;;;;;;5019349;28;20279;-84
2023/12/16 09:59:26;;;;;;;8.98;4.40;;;9.30;99.90;;;;;;5014419;28;20194;-84
2023/12/16 10:02:07;;;;;;;7.88;3.78;;;9.40;99.90;;;;;;5018004;28;20273;-84
2023/12/16 10:04:34;;;;;;;7.35;4.03;;;9.40;99.90;;;;;;4984007;28;20226;-83
2023/12/16 10:06:59;;;;;;;12.02;4.05;;;9.50;99.90;;;;;;5017835;28;20184;-84
2023/12/16 10:09:25;;;;;;;8.33;5.07;;;9.70;99.90;;;;;;5003229;28;20285;-84
2023/12/16 10:11:51;;;;;;;10.00;4.27;;;9.90;99.90;;;;;;5011509;28;20179;-83
2023/12/16 10:14:17;;;;;;;6.70;4.03;;;9.70;99.90;;;;;;5013845;28;20218;-83
2023/12/16 10:16:47;;;;;;;8.47;4.23;;;9.80;99.90;;;;;;5003282;28;20205;-82
2023/12/16 10:19:13;;;;;;;7.72;4.38;;;10.00;99.90;;;;;;5007052;28;20167;-84
2023/12/16 10:21:39;;;;;;;6.50;3.97;;;10.10;99.90;;;;;;5006210;28;20243;-83
2023/12/16 10:24:05;;;;;;;10.63;3.60;;;10.30;99.90;;;;;;5009199;28;20796;-83
2023/12/16 10:26:33;;;;;;;6.50;3.70;;;10.30;99.90;;;;;;4998379;28;20197;-81
2023/12/16 10:29:01;;;;;;;5.50;3.33;;;10.20;99.90;;;;;;5016589;28;20195;-83
2023/12/16 10:31:26;;;;;;;7.82;4.05;;;10.60;99.90;;;;;;5018650;28;20183;-82
2023/12/16 10:33:52;;;;;;;6.10;3.57;;;10.50;99.90;;;;;;5019005;28;20229;-83
2023/12/16 10:36:18;;;;;;;11.40;4.10;;;10.60;99.90;;;;;;5019458;28;20208;-82
2023/12/16 10:38:44;;;;;;;5.75;4.13;;;10.60;99.90;;;;;;5014597;28;20752;-84
2023/12/16 10:41:09;;;;;;;7.17;3.70;;;10.30;99.90;;;;;;5011209;28;20197;-82
2023/12/16 10:43:35;;;;;;;4.87;3.60;;;10.50;99.90;;;;;;5016081;28;20367;-83
2023/12/16 10:46:04;;;;;;;3.55;2.78;;;9.90;99.90;;;;;;5019672;28;20174;-83
2023/12/16 10:48:34;;;;;;;8.70;4.35;;;9.80;99.90;;;;;;5000973;28;20742;-82
2023/12/16 10:51:04;;;;;;;10.25;4.75;;;10.00;99.90;;;;;;5018168;28;20923;-82
2023/12/16 10:53:38;;;;;;;5.88;4.38;;;9.90;99.90;;;;;;5018521;28;20259;-82
2023/12/16 10:56:15;;;;;;;6.10;3.55;;;9.90;99.90;;;;;;5019493;28;20162;-83
2023/12/16 10:58:58;;;;;;;11.25;4.45;;;9.70;99.90;;;;;;5005848;28;20191;-84
2023/12/16 11:01:29;;;;;;;7.38;3.53;;;9.50;99.90;;;;;;5007696;28;20190;-83
2023/12/16 11:04:09;;;;;;;7.75;4.70;;;9.50;99.90;;;;;;5019483;28;20190;-84
2023/12/16 11:06:42;;;;;;;8.15;4.40;;;9.60;99.90;;;;;;5006817;28;20179;-81
2023/12/16 11:09:10;;;;;;;7.85;3.72;;;10.00;99.90;;;;;;5010836;28;20591;-82
2023/12/16 11:11:36;;;;;;;7.10;3.70;;;9.80;99.90;;;;;;5009141;28;20155;-81
2023/12/16 11:14:02;;;;;;;6.20;3.67;;;10.20;99.90;;;;;;5015807;28;20320;-82
2023/12/16 11:16:49;;;;;;;6.53;3.92;;;9.90;99.90;;;;;;5007924;28;20489;-82
2023/12/16 11:19:16;;;;;;;5.32;3.65;;;10.00;99.90;;;;;;5009590;28;20205;-84
2023/12/16 11:21:43;;;;;;;10.18;3.85;;;9.80;99.90;;;;;;4987923;28;20179;-84
2023/12/16 11:24:10;;;;;;;7.53;3.20;;;10.30;99.90;;;;;;5014680;28;20197;-82
2023/12/16 11:26:35;;;;;;;8.75;3.25;;;9.70;99.90;;;;;;5009558;28;20209;-83
2023/12/16 11:29:04;;;;;;;8.50;3.87;;;10.20;99.90;;;;;;5007045;28;20235;-83
2023/12/16 11:31:30;;;;;;;6.28;2.80;;;9.60;99.90;;;;;;5009084;28;21017;-84
2023/12/16 11:33:56;;;;;;;5.00;3.55;;;9.60;99.90;;;;;;5005806;28;20198;-81
2023/12/16 11:37:02;;;;;;;9.30;3.90;;;9.90;99.90;;;;;;5006918;28;20182;-81
2023/12/16 11:39:48;;;;;;;7.47;4.10;;;10.20;99.90;;;;;;5018617;28;20181;-83
2023/12/16 11:42:14;;;;;;;6.30;3.80;;;;;;;;;;5001827;28;20198;-83
2023/12/16 11:44:50;;;;;;;6.35;3.60;;;9.80;99.90;;;;;;5012738;28;20693;-86
2023/12/16 11:47:27;;;;;;;5.32;2.85;;;9.40;99.90;;;;;;4996659;28;20186;-86
2023/12/16 11:49:54;;;;;;;6.75;3.38;;;9.50;99.90;;;;;;4987565;28;20290;-84
2023/12/16 11:52:21;;;;;;;7.10;4.43;;;9.60;99.90;;;;;;4991632;28;20203;-86
2023/12/16 11:54:51;;;;;;;7.43;3.80;;;9.40;99.90;;;;;;5003119;28;20183;-84
2023/12/16 11:57:25;;;;;;;5.25;2.55;;;9.50;99.90;;;;;;4998425;28;20243;-86
2023/12/16 11:59:51;;;;;;;8.05;3.47;;;9.30;99.90;;;;;;5012864;28;20233;-86
2023/12/16 12:02:18;;;;;;;6.00;2.30;;;9.60;99.90;;;;;;5016257;28;20212;-86
2023/12/16 12:04:45;;;;;;;6.75;2.70;;;9.30;99.90;;;;;;5015784;28;20235;-85
2023/12/16 12:07:11;;;;;;;6.25;2.85;;;9.60;99.90;;;;;;5014471;28;20232;-86
2023/12/16 12:09:40;;;;;;;4.97;2.80;;;9.00;99.90;;;;;;5014023;28;20652;-86
2023/12/16 12:12:06;;;;;;;5.13;3.55;;;8.90;99.90;;;;;;5016001;28;20216;-87
2023/12/16 12:14:31;;;;;;;8.50;3.70;;;8.70;99.90;;;;;;4996886;28;20202;-86
2023/12/16 12:16:58;;;;;;;8.33;3.07;;;8.60;99.90;;;;;;5014144;28;20182;-86
2023/12/16 12:19:25;;;;;;;7.63;3.42;;;8.70;99.90;;;;;;5012785;28;20569;-86
2023/12/16 12:21:51;;;;;;;3.85;1.85;;;8.90;99.90;;;;;;5018410;28;20426;-86
2023/12/16 12:24:16;;;;;;;5.63;3.13;;;9.20;99.90;;;;;;4994998;28;20938;-84
2023/12/16 12:26:42;;;;;;;3.17;1.80;;;9.30;99.90;;;;;;5012282;28;20194;-83
2023/12/16 12:29:07;;;;;;;8.47;3.40;;;9.40;99.90;;;;;;4995826;28;20214;-83
2023/12/16 12:31:45;;;;;;;3.70;2.70;;;9.10;99.90;;;;;;5001148;28;20201;-83
2023/12/16 12:34:21;;;;;;;8.02;2.05;;;9.10;99.90;;;;;;5017661;28;20233;-83
2023/12/16 12:36:53;;;;;;;5.22;2.90;;;8.60;99.90;;;;;;4999040;28;20753;-82
2023/12/16 12:39:19;;;;;;;7.13;2.40;;;8.60;99.90;;;;;;5016835;28;20644;-82
2023/12/16 12:41:44;;;;;;;3.67;1.87;;;8.10;99.90;;;;;;5001765;28;20242;-82
2023/12/16 12:44:11;;;;;;;4.40;1.70;;;7.90;99.90;;;;;;5017568;28;20191;-82
2023/12/16 12:46:47;;;;;;;4.55;2.05;;;7.70;99.90;;;;;;5017374;28;20178;-83
2023/12/16 12:49:13;;;;;;;3.40;1.95;;;7.70;99.90;;;;;;4998324;28;20255;-84
2023/12/16 12:51:49;;;;;;;4.63;3.10;;;7.60;99.90;;;;;;5017179;28;20171;-83